Time;durP1;ratioP1;P1;durP2;ratioP2;P2;SDS_P1;SDS_P2;PMS_P1;PMS_P2;Temp;Humidity;BMP_temperature;BMP_pressure;BME280_temperature;BME280_humidity;BME280_pressure;Samples;Min_cycle;Max_cycle;Signal;HPM_P1;HPM_P2
2023/01/08 00:01:04;;;;;;;21.07;14.33;;;;;;;;;;5026541;28;20441;-65
2023/01/08 00:03:29;;;;;;;19.33;16.30;;;;;;;;;;5027114;28;20633;-65
2023/01/08 00:05:59;;;;;;;20.00;15.57;;;;;;;;;;5027592;28;21003;-67
2023/01/08 00:08:24;;;;;;;21.80;14.90;;;;;;;;;;5027681;28;20179;-67
2023/01/08 00:10:54;;;;;;;20.23;14.07;;;;;;;;;;5027116;28;20863;-67
2023/01/08 00:13:19;;;;;;;19.50;15.60;;;;;;;;;;5020980;28;20207;-66
2023/01/08 00:15:44;;;;;;;24.53;15.10;;;;;;;;;;5028344;28;20551;-66
2023/01/08 00:18:10;;;;;;;18.43;13.60;;;;;;;;;;5027443;28;20341;-67
2023/01/08 00:20:35;;;;;;;20.07;14.97;;;;;;;;;;5026339;28;20203;-66
2023/01/08 00:23:01;;;;;;;19.33;16.37;;;;;;;;;;5027883;28;21791;-67
2023/01/08 00:25:26;;;;;;;19.70;15.27;;;;;;;;;;5028622;28;20565;-66
2023/01/08 00:27:51;;;;;;;17.43;14.43;;;;;;;;;;5027507;28;20226;-66
2023/01/08 00:30:17;;;;;;;19.63;15.13;;;;;;;;;;5024281;28;20263;-66
2023/01/08 00:32:42;;;;;;;20.10;14.50;;;;;;;;;;5026549;28;20211;-66
2023/01/08 00:35:08;;;;;;;17.93;14.50;;;;;;;;;;5027364;28;20206;-66
2023/01/08 00:37:33;;;;;;;17.57;15.60;;;;;;;;;;5025947;28;20203;-65
2023/01/08 00:39:59;;;;;;;20.10;16.10;;;;;;;;;;5026521;28;20671;-67
2023/01/08 00:42:24;;;;;;;18.30;15.03;;;;;;;;;;5026385;28;20183;-66
2023/01/08 00:44:49;;;;;;;18.00;14.90;;;;;;;;;;5027187;28;20179;-67
2023/01/08 00:47:15;;;;;;;18.87;14.77;;;;;;;;;;5026309;28;20179;-65
2023/01/08 00:49:40;;;;;;;19.73;14.90;;;;;;;;;;5027186;28;20688;-66
2023/01/08 00:52:06;;;;;;;21.83;13.90;;;;;;;;;;5025635;28;20270;-66
2023/01/08 00:54:31;;;;;;;20.10;14.70;;;;;;;;;;5027108;28;20179;-65
2023/01/08 00:56:57;;;;;;;22.13;15.53;;;;;;;;;;5026426;28;20663;-66
2023/01/08 00:59:22;;;;;;;19.97;14.67;;;;;;;;;;5026790;28;20203;-66
2023/01/08 01:01:48;;;;;;;22.63;16.20;;;;;;;;;;5025740;28;20179;-66
2023/01/08 01:04:16;;;;;;;25.50;17.53;;;;;;;;;;5026463;28;20185;-66
2023/01/08 01:06:41;;;;;;;26.20;16.27;;;;;;;;;;5026386;28;20226;-65
2023/01/08 01:09:08;;;;;;;20.80;16.20;;;;;;;;;;5026428;28;20430;-66
2023/01/08 01:11:33;;;;;;;21.83;15.63;;;;;;;;;;5018964;28;20195;-70
2023/01/08 01:14:00;;;;;;;19.60;14.30;;;;;;;;;;5025201;28;20438;-66
2023/01/08 01:16:26;;;;;;;21.50;15.40;;;;;;;;;;5025114;28;20195;-67
2023/01/08 01:18:52;;;;;;;23.40;14.10;;;;;;;;;;5029070;28;20437;-67
2023/01/08 01:21:22;;;;;;;29.03;14.27;;;;;;;;;;5023759;28;21006;-67
2023/01/08 01:23:47;;;;;;;19.20;13.80;;;;;;;;;;5029611;28;20438;-67
2023/01/08 01:26:17;;;;;;;20.20;15.00;;;;;;;;;;5029235;28;20793;-67
2023/01/08 01:28:43;;;;;;;25.43;15.17;;;;;;;;;;5029318;28;20179;-66
2023/01/08 01:31:12;;;;;;;33.23;15.33;;;;;;;;;;5027298;28;20965;-66
2023/01/08 01:33:38;;;;;;;22.67;15.20;;;;;;;;;;5029065;28;20253;-66
2023/01/08 01:36:03;;;;;;;19.77;14.70;;;;;;;;;;5029023;28;20952;-65
2023/01/08 01:38:29;;;;;;;23.40;14.70;;;;;;;;;;5029099;28;20179;-65
2023/01/08 01:40:55;;;;;;;17.60;13.13;;;;;;;;;;5019578;28;20230;-65
2023/01/08 01:43:38;;;;;;;21.13;13.80;;;;;;;;;;5027059;28;20182;-64
2023/01/08 01:46:15;;;;;;;20.47;15.40;;;;;;;;;;5028674;28;20203;-65
2023/01/08 01:48:40;;;;;;;18.90;14.80;;;;;;;;;;5029103;28;21268;-66
2023/01/08 01:51:06;;;;;;;19.33;14.03;;;;;;;;;;5021747;28;20431;-65
2023/01/08 01:53:34;;;;;;;19.87;14.83;;;;;;;;;;5027365;28;20183;-66
2023/01/08 01:56:01;;;;;;;21.33;14.20;;;;;;;;;;5020029;28;20214;-68
2023/01/08 01:58:29;;;;;;;17.00;14.70;;;;;;;;;;5026187;28;20438;-67
2023/01/08 02:00:56;;;;;;;20.57;14.23;;;;;;;;;;5025925;28;20968;-67
2023/01/08 02:03:24;;;;;;;17.93;13.57;;;;;;;;;;5028990;28;20464;-67
2023/01/08 02:06:17;;;;;;;22.80;16.17;;;;;;;;;;5028317;28;20523;-67
2023/01/08 02:08:48;;;;;;;22.77;14.87;;;;;;;;;;5020292;28;20583;-65
2023/01/08 02:11:22;;;;;;;22.87;15.30;;;;;;;;;;5027817;28;20485;-65
2023/01/08 02:13:59;;;;;;;19.30;12.20;;;;;;;;;;5027984;28;20438;-65
2023/01/08 02:16:27;;;;;;;17.03;13.83;;;;;;;;;;5021894;28;20453;-65
2023/01/08 02:19:13;;;;;;;14.70;12.03;;;;;;;;;;5028428;28;20442;-66
2023/01/08 02:21:51;;;;;;;33.40;14.20;;;;;;;;;;5028129;28;20787;-66
2023/01/08 02:24:46;;;;;;;24.17;13.83;;;;;;;;;;5028265;28;20525;-68
2023/01/08 02:27:13;;;;;;;15.57;12.60;;;;;;;;;;5028184;28;20931;-67
2023/01/08 02:29:40;;;;;;;17.50;13.63;;;;;;;;;;5024850;28;20829;-66
2023/01/08 02:32:05;;;;;;;17.63;13.20;;;;;;;;;;5026771;28;20461;-68
2023/01/08 02:34:31;;;;;;;18.00;13.27;;;;;;;;;;5028573;28;20438;-66
2023/01/08 02:36:57;;;;;;;18.37;13.90;;;;;;;;;;5025152;28;20249;-66
2023/01/08 02:39:50;;;;;;;16.10;11.97;;;;;;;;;;5028582;28;20660;-66
2023/01/08 02:42:39;;;;;;;14.53;12.40;;;;;;;;;;5021339;28;20449;-66
2023/01/08 02:45:37;;;;;;;17.10;12.67;;;;;;;;;;5027592;28;20802;-67
2023/01/08 02:48:42;;;;;;;21.83;13.47;;;;;;;;;;5028102;28;20848;-67
2023/01/08 02:51:17;;;;;;;16.10;12.50;;;;;;;;;;5020538;28;20453;-67
2023/01/08 02:53:47;;;;;;;17.30;13.03;;;;;;;;;;5028033;28;20465;-67
2023/01/08 02:56:16;;;;;;;14.23;11.17;;;;;;;;;;5020654;28;20461;-68
2023/01/08 02:58:43;;;;;;;21.00;13.33;;;;;;;;;;5028224;28;20496;-68
2023/01/08 03:01:12;;;;;;;17.50;12.57;;;;;;;;;;5029539;28;20499;-68
2023/01/08 03:03:40;;;;;;;13.93;12.00;;;;;;;;;;5021660;28;20575;-67
2023/01/08 03:06:12;;;;;;;14.37;11.53;;;;;;;;;;5023135;28;20469;-67
2023/01/08 03:08:40;;;;;;;17.27;13.00;;;;;;;;;;5027538;28;20474;-67
2023/01/08 03:11:10;;;;;;;26.73;15.03;;;;;;;;;;5022702;28;20456;-66
2023/01/08 03:13:54;;;;;;;17.33;12.37;;;;;;;;;;5031894;28;20430;-67
2023/01/08 03:16:27;;;;;;;18.47;13.77;;;;;;;;;;5028894;28;20454;-65
2023/01/08 03:18:59;;;;;;;29.13;14.40;;;;;;;;;;5029940;28;20438;-65
2023/01/08 03:21:26;;;;;;;19.90;13.90;;;;;;;;;;5030412;28;20438;-66
2023/01/08 03:23:51;;;;;;;40.93;14.10;;;;;;;;;;5031783;28;20450;-64
2023/01/08 03:26:24;;;;;;;16.60;13.20;;;;;;;;;;5022757;28;20493;-65
2023/01/08 03:28:55;;;;;;;16.60;13.20;;;;;;;;;;5023028;28;20209;-65
2023/01/08 03:31:23;;;;;;;16.67;13.37;;;;;;;;;;5030014;28;20434;-66
2023/01/08 03:33:49;;;;;;;16.20;11.93;;;;;;;;;;5025219;28;20431;-66
2023/01/08 03:36:18;;;;;;;19.63;13.50;;;;;;;;;;5030456;28;20458;-66
2023/01/08 03:38:50;;;;;;;16.83;14.10;;;;;;;;;;5026483;28;20854;-64
2023/01/08 03:41:19;;;;;;;16.80;13.90;;;;;;;;;;5027093;28;20469;-65
2023/01/08 03:43:45;;;;;;;16.90;12.90;;;;;;;;;;5031776;28;20438;-67
2023/01/08 03:46:15;;;;;;;18.30;14.00;;;;;;;;;;5023778;28;20508;-65
2023/01/08 03:48:42;;;;;;;25.03;12.97;;;;;;;;;;5025896;28;20602;-65
2023/01/08 03:51:09;;;;;;;17.33;12.87;;;;;;;;;;5027499;28;20486;-66
2023/01/08 03:53:34;;;;;;;22.80;13.10;;;;;;;;;;5021963;28;20446;-66
2023/01/08 03:56:00;;;;;;;20.00;13.43;;;;;;;;;;5030818;28;20976;-67
2023/01/08 03:58:25;;;;;;;21.17;13.73;;;;;;;;;;5030811;28;20179;-67
2023/01/08 04:00:51;;;;;;;19.33;13.70;;;;;;;;;;5030640;28;20214;-66
2023/01/08 04:03:17;;;;;;;27.83;12.87;;;;;;;;;;5031832;28;20612;-66
2023/01/08 04:05:43;;;;;;;17.33;13.37;;;;;;;;;;5031805;28;20222;-67
2023/01/08 04:08:08;;;;;;;18.50;13.03;;;;;;;;;;5030580;28;20445;-68
2023/01/08 04:10:34;;;;;;;18.73;12.30;;;;;;;;;;5030471;28;20231;-66
2023/01/08 04:12:59;;;;;;;17.20;13.17;;;;;;;;;;5034393;28;20225;-66
2023/01/08 04:15:25;;;;;;;18.60;13.00;;;;;;;;;;5031001;28;20203;-67
2023/01/08 04:17:51;;;;;;;15.33;13.73;;;;;;;;;;5030506;28;20230;-66
2023/01/08 04:20:17;;;;;;;16.70;13.23;;;;;;;;;;5029513;28;20286;-66
2023/01/08 04:22:42;;;;;;;21.83;14.40;;;;;;;;;;5030227;28;20529;-66
2023/01/08 04:25:08;;;;;;;16.90;14.53;;;;;;;;;;5039667;28;20198;-67
2023/01/08 04:27:33;;;;;;;31.83;13.87;;;;;;;;;;5030109;28;20241;-66
2023/01/08 04:29:58;;;;;;;21.87;15.27;;;;;;;;;;5029232;28;20182;-66
2023/01/08 04:32:24;;;;;;;18.63;12.90;;;;;;;;;;5028442;28;20636;-66
2023/01/08 04:34:49;;;;;;;21.97;15.53;;;;;;;;;;5035039;28;20182;-66
2023/01/08 04:37:15;;;;;;;15.00;11.93;;;;;;;;;;5025207;28;20184;-66
2023/01/08 04:39:40;;;;;;;19.20;14.40;;;;;;;;;;5026398;28;20611;-68
2023/01/08 04:42:05;;;;;;;22.00;17.73;;;;;;;;;;5028833;28;20187;-67
2023/01/08 04:44:31;;;;;;;26.00;13.50;;;;;;;;;;5033172;28;20207;-66
2023/01/08 04:46:56;;;;;;;27.33;15.40;;;;;;;;;;5030066;28;20231;-67
2023/01/08 04:49:22;;;;;;;20.13;14.00;;;;;;;;;;5030095;28;20526;-67
2023/01/08 04:51:47;;;;;;;19.30;14.23;;;;;;;;;;5028476;28;20309;-67
2023/01/08 04:54:12;;;;;;;17.90;14.37;;;;;;;;;;5030192;28;20187;-66
2023/01/08 04:56:38;;;;;;;16.20;14.13;;;;;;;;;;5030026;28;20257;-66
2023/01/08 04:59:03;;;;;;;17.53;13.37;;;;;;;;;;5025253;28;20207;-67
2023/01/08 05:01:29;;;;;;;15.70;12.27;;;;;;;;;;5028837;28;20214;-67
2023/01/08 05:03:57;;;;;;;19.30;14.53;;;;;;;;;;5022387;28;20175;-66
2023/01/08 05:06:23;;;;;;;17.23;14.00;;;;;;;;;;5029067;28;20287;-66
2023/01/08 05:08:48;;;;;;;17.20;13.20;;;;;;;;;;5029899;28;20453;-65
2023/01/08 05:11:14;;;;;;;21.77;13.80;;;;;;;;;;5028431;28;20438;-67
2023/01/08 05:13:39;;;;;;;17.63;13.00;;;;;;;;;;5039264;28;20175;-67
2023/01/08 05:16:05;;;;;;;21.07;14.20;;;;;;;;;;5037997;28;20703;-66
2023/01/08 05:18:30;;;;;;;19.73;14.00;;;;;;;;;;5028794;28;20191;-67
2023/01/08 05:21:03;;;;;;;18.27;13.97;;;;;;;;;;5022751;28;20845;-67
2023/01/08 05:23:30;;;;;;;24.20;13.70;;;;;;;;;;5038114;28;20183;-66
2023/01/08 05:26:00;;;;;;;20.90;14.07;;;;;;;;;;5029653;28;20465;-66
2023/01/08 05:28:26;;;;;;;17.67;14.13;;;;;;;;;;5028771;28;20440;-67
2023/01/08 05:30:52;;;;;;;18.73;13.30;;;;;;;;;;5026911;28;20985;-67
2023/01/08 05:33:18;;;;;;;17.70;13.27;;;;;;;;;;5025015;28;20605;-67
2023/01/08 05:35:43;;;;;;;20.77;14.17;;;;;;;;;;5028553;28;20219;-66
2023/01/08 05:38:09;;;;;;;15.87;12.63;;;;;;;;;;5029032;28;20183;-66
2023/01/08 05:40:34;;;;;;;25.13;15.40;;;;;;;;;;5020354;28;20355;-65
2023/01/08 05:43:00;;;;;;;24.30;14.47;;;;;;;;;;5022815;28;20271;-66
2023/01/08 05:45:26;;;;;;;24.13;14.33;;;;;;;;;;5023911;28;20233;-65
2023/01/08 05:47:51;;;;;;;16.33;13.43;;;;;;;;;;5024682;28;20470;-65
2023/01/08 05:50:17;;;;;;;20.70;13.20;;;;;;;;;;5035672;28;20175;-67
2023/01/08 05:52:42;;;;;;;22.10;13.83;;;;;;;;;;5028530;28;20179;-68
2023/01/08 05:55:08;;;;;;;20.87;14.00;;;;;;;;;;5029057;28;20691;-68
2023/01/08 05:57:33;;;;;;;18.97;14.40;;;;;;;;;;5029335;28;20187;-67
2023/01/08 05:59:59;;;;;;;37.43;14.60;;;;;;;;;;5036850;28;20214;-66
2023/01/08 06:02:24;;;;;;;26.30;13.57;;;;;;;;;;5027634;28;20251;-68
2023/01/08 06:04:50;;;;;;;18.63;12.40;;;;;;;;;;5028746;28;20253;-67
2023/01/08 06:07:15;;;;;;;17.67;11.70;;;;;;;;;;5021717;28;20203;-67
2023/01/08 06:09:40;;;;;;;17.80;12.50;;;;;;;;;;5027085;28;20624;-67
2023/01/08 06:12:06;;;;;;;28.87;12.47;;;;;;;;;;5028159;28;20207;-66
2023/01/08 06:14:31;;;;;;;25.90;13.60;;;;;;;;;;5028383;28;20326;-66
2023/01/08 06:16:57;;;;;;;21.27;14.00;;;;;;;;;;5033989;28;20323;-67
2023/01/08 06:19:22;;;;;;;17.37;12.73;;;;;;;;;;5029133;28;20260;-67
2023/01/08 06:21:48;;;;;;;20.83;14.20;;;;;;;;;;5021670;28;20222;-68
2023/01/08 06:24:14;;;;;;;18.23;12.73;;;;;;;;;;5018197;28;20521;-67
2023/01/08 06:26:39;;;;;;;15.50;12.40;;;;;;;;;;5027189;28;20199;-67
2023/01/08 06:29:05;;;;;;;17.87;13.40;;;;;;;;;;5026036;28;20194;-67
2023/01/08 06:31:30;;;;;;;18.30;13.33;;;;;;;;;;5023330;28;20187;-67
2023/01/08 06:33:55;;;;;;;16.17;13.10;;;;;;;;;;5028750;28;20184;-67
2023/01/08 06:36:21;;;;;;;14.43;11.13;;;;;;;;;;5029897;28;20211;-67
2023/01/08 06:38:46;;;;;;;17.90;13.50;;;;;;;;;;5033141;28;20214;-67
2023/01/08 06:41:12;;;;;;;17.80;13.20;;;;;;;;;;5022387;28;20234;-67
2023/01/08 06:43:37;;;;;;;21.90;13.30;;;;;;;;;;5032811;28;20186;-68
2023/01/08 06:46:04;;;;;;;22.40;13.27;;;;;;;;;;5023315;28;20239;-68
2023/01/08 06:48:30;;;;;;;21.20;12.60;;;;;;;;;;5032086;28;20508;-68
2023/01/08 06:50:58;;;;;;;19.50;12.57;;;;;;;;;;5031281;28;20430;-68
2023/01/08 06:53:24;;;;;;;18.23;11.77;;;;;;;;;;5028901;28;20245;-68
2023/01/08 06:55:55;;;;;;;23.73;13.40;;;;;;;;;;5029973;28;20962;-68
2023/01/08 06:58:21;;;;;;;20.17;13.20;;;;;;;;;;5030223;28;20269;-68
2023/01/08 07:00:46;;;;;;;45.77;14.27;;;;;;;;;;5016560;28;21478;-68
2023/01/08 07:03:11;;;;;;;15.77;11.40;;;;;;;;;;5016311;28;20668;-65
2023/01/08 07:05:37;;;;;;;22.33;12.00;;;;;;;;;;5029217;28;20253;-64
2023/01/08 07:08:02;;;;;;;14.33;12.67;;;;;;;;;;5023233;28;20583;-64
2023/01/08 07:10:30;;;;;;;15.57;12.37;;;;;;;;;;5030268;28;20565;-64
2023/01/08 07:12:56;;;;;;;25.90;15.53;;;;;;;;;;5028666;28;20643;-63
2023/01/08 07:15:21;;;;;;;22.53;14.00;;;;;;;;;;5031431;28;20469;-63
2023/01/08 07:17:46;;;;;;;35.87;13.50;;;;;;;;;;5031333;28;20179;-65
2023/01/08 07:20:12;;;;;;;22.57;11.47;;;;;;;;;;5022320;28;20207;-65
2023/01/08 07:22:37;;;;;;;22.27;11.73;;;;;;;;;;5014308;28;20609;-65
2023/01/08 07:25:04;;;;;;;30.37;12.40;;;;;;;;;;5038166;28;20175;-64
2023/01/08 07:27:29;;;;;;;46.97;14.17;;;;;;;;;;5030965;28;20184;-64
2023/01/08 07:29:55;;;;;;;26.17;14.80;;;;;;;;;;5015991;28;20522;-64
2023/01/08 07:32:20;;;;;;;92.93;20.23;;;;;;;;;;5022854;28;20257;-63
2023/01/08 07:34:46;;;;;;;45.70;13.53;;;;;;;;;;5030931;28;20183;-62
2023/01/08 07:37:11;;;;;;;25.03;12.80;;;;;;;;;;5030641;28;20203;-62
2023/01/08 07:39:37;;;;;;;26.57;12.13;;;;;;;;;;5010146;28;20220;-63
2023/01/08 07:42:02;;;;;;;40.03;14.40;;;;;;;;;;5028579;28;20627;-63
2023/01/08 07:44:28;;;;;;;45.87;14.07;;;;;;;;;;5030003;28;20184;-63
2023/01/08 07:46:54;;;;;;;30.17;13.20;;;;;;;;;;5019608;28;20199;-63
2023/01/08 07:49:19;;;;;;;20.80;12.13;;;;;;;;;;5027477;28;20202;-64
2023/01/08 07:51:45;;;;;;;17.97;12.37;;;;;;;;;;5030629;28;20911;-64
2023/01/08 07:54:10;;;;;;;18.37;12.20;;;;;;;;;;5029991;28;20247;-63
2023/01/08 07:56:36;;;;;;;20.87;12.60;;;;;;;;;;5024328;28;20242;-64
2023/01/08 07:59:01;;;;;;;17.07;11.70;;;;;;;;;;5028729;28;20271;-63
2023/01/08 08:01:26;;;;;;;18.60;12.90;;;;;;;;;;5023601;28;20266;-67
2023/01/08 08:03:52;;;;;;;21.60;12.93;;;;;;;;;;5026943;28;20621;-67
2023/01/08 08:06:17;;;;;;;16.73;11.53;;;;;;;;;;5021210;28;20211;-66
2023/01/08 08:08:43;;;;;;;28.43;13.80;;;;;;;;;;5026623;28;20599;-67
2023/01/08 08:11:08;;;;;;;31.40;14.53;;;;;;;;;;5022125;28;20211;-67
2023/01/08 08:13:34;;;;;;;14.80;12.03;;;;;;;;;;5020474;28;20184;-67
2023/01/08 08:16:03;;;;;;;13.60;12.23;;;;;;;;;;5028285;28;20214;-69
2023/01/08 08:18:28;;;;;;;14.10;11.73;;;;;;;;;;5015680;28;20179;-67
2023/01/08 08:20:54;;;;;;;15.07;11.50;;;;;;;;;;5028678;28;20776;-67
2023/01/08 08:23:19;;;;;;;31.00;13.37;;;;;;;;;;5026690;28;20186;-67
2023/01/08 08:25:45;;;;;;;18.90;12.50;;;;;;;;;;5024219;28;20211;-67
2023/01/08 08:28:11;;;;;;;17.70;12.00;;;;;;;;;;5017063;28;20520;-67
2023/01/08 08:30:37;;;;;;;22.30;12.63;;;;;;;;;;5021569;28;20544;-67
2023/01/08 08:33:05;;;;;;;36.77;14.67;;;;;;;;;;5027881;28;20536;-69
2023/01/08 08:35:31;;;;;;;72.13;17.13;;;;;;;;;;5029245;28;20454;-68
2023/01/08 08:37:57;;;;;;;19.07;12.83;;;;;;;;;;5008893;28;20469;-67
2023/01/08 08:40:23;;;;;;;26.97;14.30;;;;;;;;;;5016304;28;20510;-68
2023/01/08 08:42:55;;;;;;;19.03;13.20;;;;;;;;;;4999916;28;20198;-68
2023/01/08 08:45:20;;;;;;;13.87;11.53;;;;;;;;;;5023378;28;21112;-67
2023/01/08 08:47:46;;;;;;;13.03;10.97;;;;;;;;;;5028780;28;20438;-66
2023/01/08 08:50:11;;;;;;;15.37;12.13;;;;;;;;;;5023523;28;20205;-66
2023/01/08 08:52:36;;;;;;;16.80;12.27;;;;;;;;;;5018529;28;20731;-67
2023/01/08 08:55:02;;;;;;;25.97;12.00;;;;;;;;;;5018228;28;20200;-68
2023/01/08 08:57:28;;;;;;;19.40;13.20;;;;;;;;;;5022952;28;20175;-67
2023/01/08 08:59:53;;;;;;;17.80;12.57;;;;;;;;;;5027108;28;20208;-68
2023/01/08 09:02:18;;;;;;;39.33;16.27;;;;;;;;;;5021121;28;20630;-67
2023/01/08 09:04:44;;;;;;;15.77;12.77;;;;;;;;;;5014399;28;20199;-67
2023/01/08 09:07:09;;;;;;;23.00;14.00;;;;;;;;;;5014847;28;20219;-69
2023/01/08 09:09:35;;;;;;;49.30;16.23;;;;;;;;;;5027065;28;20298;-68
2023/01/08 09:12:01;;;;;;;41.87;14.63;;;;;;;;;;5023502;28;20187;-67
2023/01/08 09:14:26;;;;;;;30.40;13.37;;;;;;;;;;5028665;28;20262;-66
2023/01/08 09:16:52;;;;;;;31.23;14.67;;;;;;;;;;5028042;28;20994;-67
2023/01/08 09:19:17;;;;;;;46.20;15.87;;;;;;;;;;5026551;28;20230;-68
2023/01/08 09:21:43;;;;;;;14.60;11.83;;;;;;;;;;5024113;28;20254;-67
2023/01/08 09:24:08;;;;;;;15.50;12.90;;;;;;;;;;5022194;28;20262;-66
2023/01/08 09:26:33;;;;;;;18.00;14.57;;;;;;;;;;5015888;28;20258;-67
2023/01/08 09:28:59;;;;;;;17.07;13.20;;;;;;;;;;5015531;28;20226;-67
2023/01/08 09:31:25;;;;;;;14.60;11.83;;;;;;;;;;5003709;28;20175;-68
2023/01/08 09:33:50;;;;;;;13.60;11.77;;;;;;;;;;5027396;28;20640;-69
2023/01/08 09:36:16;;;;;;;16.77;13.00;;;;;;;;;;5022638;28;20453;-66
2023/01/08 09:38:42;;;;;;;17.00;12.70;;;;;;;;;;5015621;28;20191;-66
2023/01/08 09:41:25;;;;;;;19.13;12.20;;;;;;;;;;5025324;28;20231;-68
2023/01/08 09:43:54;;;;;;;13.13;11.50;;;;;;;;;;5017412;28;21013;-67
2023/01/08 09:46:41;;;;;;;13.80;11.30;;;;;;;;;;5024513;28;20513;-68
2023/01/08 09:49:12;;;;;;;14.07;11.17;;;;;;;;;;4962728;28;20725;-68
2023/01/08 09:51:38;;;;;;;26.70;11.77;;;;;;;;;;4952171;28;20441;-67
2023/01/08 09:54:06;;;;;;;20.70;12.37;;;;;;;;;;4959416;28;20444;-66
2023/01/08 09:56:34;;;;;;;19.40;12.03;;;;;;;;;;4965274;28;20201;-67
2023/01/08 09:59:02;;;;;;;29.27;12.20;;;;;;;;;;4965079;28;20468;-68
2023/01/08 10:01:35;;;;;;;24.70;12.27;;;;;;;;;;4958318;28;20959;-68
2023/01/08 10:04:12;;;;;;;16.33;11.27;;;;;;;;;;4959867;28;20799;-68
2023/01/08 10:06:39;;;;;;;16.60;13.23;;;;;;;;;;5021603;22;20489;-73
2023/01/08 10:09:05;;;;;;;14.00;11.77;;;;;;;;;;5045026;28;20452;-72
2023/01/08 10:11:39;;;;;;;16.47;12.63;;;;;;;;;;5043280;28;20429;-72
2023/01/08 10:14:16;;;;;;;14.73;11.40;;;;;;;;;;5048773;28;20178;-72
2023/01/08 10:16:42;;;;;;;24.93;12.80;;;;;;;;;;5046097;28;20492;-73
2023/01/08 10:19:08;;;;;;;20.80;11.37;;;;;;;;;;5046194;28;20446;-72
2023/01/08 10:21:39;;;;;;;20.73;12.03;;;;;;;;;;5053591;28;20438;-74
2023/01/08 10:24:05;;;;;;;38.73;13.10;;;;;;;;;;5058553;28;20430;-72
2023/01/08 10:26:36;;;;;;;12.37;11.03;;;;;;;;;;5061603;28;20452;-73
2023/01/08 10:29:12;;;;;;;15.53;10.77;;;;;;;;;;5049938;28;20465;-73
2023/01/08 10:32:25;;;;;;;20.73;11.80;;;;;;;;;;5047242;28;21024;-73
2023/01/08 10:34:54;;;;;;;17.53;12.57;;;;;;;;;;5041928;28;20433;-73
2023/01/08 10:37:25;;;;;;;19.63;10.80;;;;;;;;;;5060124;28;20475;-74
2023/01/08 10:39:52;;;;;;;23.43;11.20;;;;;;;;;;5041641;28;21029;-73
2023/01/08 10:42:21;;;;;;;16.57;10.87;;;;;;;;;;5044200;28;20459;-74
2023/01/08 10:44:54;;;;;;;11.97;9.50;;;;;;;;;;5046957;28;20478;-74
2023/01/08 10:47:22;;;;;;;14.10;10.77;;;;;;;;;;5040611;28;20454;-73
2023/01/08 10:49:47;;;;;;;14.60;10.00;;;;;;;;;;5042577;28;20526;-71
2023/01/08 10:52:35;;;;;;;28.03;10.40;;;;;;;;;;5045427;28;20521;-74
2023/01/08 10:55:28;;;;;;;20.63;11.23;;;;;;;;;;5046729;28;20183;-73
2023/01/08 10:58:08;;;;;;;29.27;11.13;;;;;;;;;;5055206;28;20432;-74
2023/01/08 11:00:39;;;;;;;25.00;9.80;;;;;;;;;;5031081;28;20511;-72
2023/01/08 11:03:06;;;;;;;27.80;10.50;;;;;;;;;;5047504;28;20429;-73
2023/01/08 11:05:38;;;;;;;28.50;9.60;;;;;;;;;;5026844;28;20486;-73
2023/01/08 11:08:15;;;;;;;15.50;10.33;;;;;;;;;;5025095;28;20464;-72
2023/01/08 11:10:40;;;;;;;13.53;8.53;;;;;;;;;;5030318;28;20444;-72
2023/01/08 11:13:07;;;;;;;8.63;7.50;;;;;;;;;;5046085;28;20425;-72
2023/01/08 11:15:37;;;;;;;12.63;8.20;;;;;;;;;;5034220;28;20594;-72
2023/01/08 11:18:20;;;;;;;15.33;8.30;;;;;;;;;;5046554;28;20433;-71
2023/01/08 11:20:47;;;;;;;24.07;9.00;;;;;;;;;;5028891;28;20463;-72
2023/01/08 11:23:20;;;;;;;74.43;14.23;;;;;;;;;;5037153;28;20822;-73
2023/01/08 11:25:56;;;;;;;20.70;8.40;;;;;;;;;;5050693;28;20461;-72
2023/01/08 11:29:01;;;;;;;65.23;13.97;;;;;;;;;;5047091;28;20444;-71
2023/01/08 11:31:42;;;;;;;27.83;8.00;;;;;;;;;;5029084;28;20529;-74
2023/01/08 11:34:38;;;;;;;10.00;6.27;;;;;;;;;;5046836;28;20437;-72
2023/01/08 11:37:13;;;;;;;9.23;6.23;;;;;;;;;;5050799;28;20827;-72
2023/01/08 11:39:38;;;;;;;6.00;5.30;;;;;;;;;;5039084;28;20462;-73
2023/01/08 11:42:06;;;;;;;6.87;5.37;;;;;;;;;;5042442;28;20438;-72
2023/01/08 11:44:50;;;;;;;13.80;5.80;;;;;;;;;;5039841;28;20175;-71
2023/01/08 11:47:48;;;;;;;30.37;6.93;;;;;;;;;;5037458;28;20461;-71
2023/01/08 11:50:33;;;;;;;13.90;6.10;;;;;;;;;;4995971;28;20448;-72
2023/01/08 11:53:23;;;;;;;76.97;13.10;;;;;;;;;;5047428;28;20441;-70
2023/01/08 11:55:57;;;;;;;7.30;4.83;;;;;;;;;;5045308;28;20461;-74
2023/01/08 11:58:35;;;;;;;5.97;4.50;;;;;;;;;;5041214;28;20444;-74
2023/01/08 12:01:20;;;;;;;7.20;4.20;;;;;;;;;;5048481;28;20461;-71
2023/01/08 12:03:53;;;;;;;15.43;5.20;;;;;;;;;;5037201;28;20911;-71
2023/01/08 12:06:27;;;;;;;9.53;5.07;;;;;;;;;;5050761;28;20434;-72
2023/01/08 12:08:52;;;;;;;6.87;4.20;;;;;;;;;;5015934;28;20418;-71
2023/01/08 12:11:22;;;;;;;4.73;4.10;;;;;;;;;;5034749;28;20512;-71
2023/01/08 12:14:02;;;;;;;10.10;4.53;;;;;;;;;;5035453;28;20185;-70
2023/01/08 12:16:33;;;;;;;4.27;3.77;;;;;;;;;;5038997;28;20995;-72
2023/01/08 12:19:23;;;;;;;5.33;4.33;;;;;;;;;;5046641;28;20420;-71
2023/01/08 12:22:09;;;;;;;4.77;3.90;;;;;;;;;;5053419;28;20425;-72
2023/01/08 12:25:12;;;;;;;12.53;3.90;;;;;;;;;;5054052;28;20424;-72
2023/01/08 12:27:38;;;;;;;4.87;4.20;;;;;;;;;;5025303;28;21182;-72
2023/01/08 12:30:35;;;;;;;9.70;4.60;;;;;;;;;;5045506;28;20437;-73
2023/01/08 12:33:08;;;;;;;7.47;3.73;;;;;;;;;;5030916;28;20282;-73
2023/01/08 12:35:46;;;;;;;9.00;4.10;;;;;;;;;;5038978;28;20421;-71
2023/01/08 12:38:14;;;;;;;11.33;4.90;;;;;;;;;;5045365;28;20484;-73
2023/01/08 12:41:04;;;;;;;29.27;6.40;;;;;;;;;;5032608;28;20480;-74
2023/01/08 12:43:37;;;;;;;22.20;6.53;;;;;;;;;;5036876;28;20567;-71
2023/01/08 12:46:04;;;;;;;9.03;4.33;;;;;;;;;;5042903;28;20454;-75
2023/01/08 12:48:32;;;;;;;6.63;3.77;;;;;;;;;;5052213;28;20433;-74
2023/01/08 12:51:07;;;;;;;30.80;6.30;;;;;;;;;;5049260;28;20430;-72
2023/01/08 12:53:45;;;;;;;10.40;4.07;;;;;;;;;;5039762;28;20491;-71
2023/01/08 12:56:15;;;;;;;7.60;5.10;;;;;;;;;;5051948;28;20548;-71
2023/01/08 12:59:18;;;;;;;14.67;4.10;;;;;;;;;;5036528;28;20435;-72
2023/01/08 13:02:09;;;;;;;14.93;3.70;;;;;;;;;;5041887;28;21201;-73
2023/01/08 13:04:42;;;;;;;5.10;3.27;;;;;;;;;;5030956;28;20442;-71
2023/01/08 13:07:17;;;;;;;4.07;3.53;;;;;;;;;;5029355;28;20462;-72
2023/01/08 13:09:43;;;;;;;3.80;3.10;;;;;;;;;;5035846;28;20438;-71
2023/01/08 13:12:13;;;;;;;4.03;3.63;;;;;;;;;;5035053;28;20491;-72
2023/01/08 13:14:52;;;;;;;13.17;4.07;;;;;;;;;;5038134;28;20437;-73
2023/01/08 13:17:21;;;;;;;7.40;3.30;;;;;;;;;;5025188;28;20555;-71
2023/01/08 13:19:54;;;;;;;31.40;5.40;;;;;;;;;;5044674;28;20462;-70
2023/01/08 13:22:24;;;;;;;13.30;4.13;;;;;;;;;;5042657;28;20487;-75
2023/01/08 13:24:51;;;;;;;5.73;3.20;;;;;;;;;;5036816;28;20460;-72
2023/01/08 13:27:16;;;;;;;12.70;3.90;;;;;;;;;;5041585;28;20461;-72
2023/01/08 13:29:47;;;;;;;7.10;4.37;;;;;;;;;;5037512;28;20189;-74
2023/01/08 13:32:23;;;;;;;26.97;5.90;;;;;;;;;;5033042;28;20294;-73
2023/01/08 13:35:20;;;;;;;8.40;4.00;;;;;;;;;;5032974;28;20478;-73
2023/01/08 13:37:48;;;;;;;11.87;4.40;;;;;;;;;;5045980;28;20433;-73
2023/01/08 13:40:36;;;;;;;13.90;4.67;;;;;;;;;;5037276;28;20469;-72
2023/01/08 13:43:05;;;;;;;24.37;5.63;;;;;;;;;;5037478;28;20433;-73
2023/01/08 13:45:32;;;;;;;37.40;5.40;;;;;;;;;;5037573;28;20433;-71
2023/01/08 13:47:57;;;;;;;12.17;7.00;;;;;;;;;;5032766;28;20521;-75
2023/01/08 13:50:25;;;;;;;27.23;5.33;;;;;;;;;;5040857;28;20526;-73
2023/01/08 13:52:57;;;;;;;28.77;5.97;;;;;;;;;;5041324;28;20194;-72
2023/01/08 13:55:29;;;;;;;51.83;8.43;;;;;;;;;;5033317;28;20877;-74
2023/01/08 13:57:58;;;;;;;12.43;3.77;;;;;;;;;;5039071;28;20749;-72
2023/01/08 14:00:43;;;;;;;11.40;3.80;;;;;;;;;;5038763;28;20516;-72
2023/01/08 14:03:34;;;;;;;36.13;7.37;;;;;;;;;;5042272;28;20471;-73
2023/01/08 14:06:09;;;;;;;14.83;4.63;;;;;;;;;;5030162;28;20536;-72
2023/01/08 14:08:37;;;;;;;14.20;4.50;;;;;;;;;;5042172;28;20586;-74
2023/01/08 14:11:04;;;;;;;13.70;5.80;;;;;;;;;;5039607;28;20945;-71
2023/01/08 14:13:33;;;;;;;26.30;6.03;;;;;;;;;;5041760;28;20464;-71
2023/01/08 14:16:02;;;;;;;9.13;4.37;;;;;;;;;;5035315;28;21581;-74
2023/01/08 14:18:28;;;;;;;7.50;3.97;;;;;;;;;;5011801;28;20450;-72
2023/01/08 14:20:53;;;;;;;11.77;4.87;;;;;;;;;;5034782;28;20985;-72
2023/01/08 14:23:26;;;;;;;16.17;5.43;;;;;;;;;;5037088;28;20194;-74
2023/01/08 14:25:52;;;;;;;13.97;6.57;;;;;;;;;;5032730;28;20540;-72
2023/01/08 14:28:21;;;;;;;74.43;71.20;;;;;;;;;;5032763;28;20421;-73
2023/01/08 14:30:51;;;;;;;52.87;38.30;;;;;;;;;;5024622;28;20519;-74
2023/01/08 14:33:23;;;;;;;853.90;650.03;;;;;;;;;;5022325;28;20429;-74
2023/01/08 14:35:50;;;;;;;416.53;398.33;;;;;;;;;;5039596;28;20492;-71